createdAt,value
2022-11-22T00:02:17.767Z,3.08
2022-11-22T00:09:00.414Z,3.06
2022-11-22T00:11:32.733Z,3.06
2022-11-22T00:14:05.268Z,3.03
2022-11-22T00:16:38.526Z,2.99
2022-11-22T00:19:11.832Z,2.96
2022-11-22T00:21:50.361Z,2.94
2022-11-22T00:24:22.945Z,2.91
2022-11-22T00:31:46.449Z,2.82
2022-11-22T00:34:18.717Z,2.79
2022-11-22T00:36:51.272Z,2.77
2022-11-22T00:39:32.644Z,2.70
2022-11-22T00:42:57.905Z,2.58
2022-11-22T00:45:30.210Z,2.49
2022-11-22T00:48:02.343Z,2.47
2022-11-22T00:51:28.972Z,2.43
2022-11-22T00:59:16.037Z,2.25
2022-11-22T01:01:48.265Z,2.24
2022-11-22T01:04:27.384Z,2.22
2022-11-22T01:07:00.139Z,2.18
2022-11-22T01:14:26.638Z,2.13
2022-11-22T01:21:31.436Z,2.07
2022-11-22T01:24:03.960Z,2.07
2022-11-22T01:26:42.595Z,2.08
2022-11-22T01:29:15.445Z,2.14
2022-11-22T01:31:54.484Z,2.15
2022-11-22T01:34:27.207Z,2.17
2022-11-22T01:37:48.093Z,2.20
2022-11-22T01:45:48.143Z,2.18
2022-11-22T01:52:23.589Z,2.32
2022-11-22T01:55:45.768Z,2.40
2022-11-22T02:07:19.138Z,2.62
2022-11-22T02:10:12.775Z,2.66
2022-11-22T02:14:38.892Z,2.68
2022-11-22T02:17:18.716Z,2.71
2022-11-22T02:24:18.248Z,2.72
2022-11-22T02:26:50.635Z,2.78
2022-11-22T02:29:49.979Z,2.83
2022-11-22T02:32:22.527Z,2.86
2022-11-22T02:34:55.036Z,2.87
2022-11-22T02:41:29.572Z,2.90
2022-11-22T02:44:35.929Z,2.88
2022-11-22T02:51:35.141Z,2.76
2022-11-22T02:55:13.245Z,2.71
2022-11-22T02:57:45.556Z,2.71
2022-11-22T03:00:27.489Z,2.72
2022-11-22T03:03:22.760Z,2.74
2022-11-22T03:10:53.132Z,2.71
2022-11-22T03:22:17.080Z,2.72
2022-11-22T03:25:40.479Z,2.70
2022-11-22T03:37:10.016Z,2.66
2022-11-22T03:39:42.508Z,2.66
2022-11-22T03:42:42.327Z,2.66
2022-11-22T03:46:48.044Z,2.67
2022-11-22T03:53:36.548Z,2.71
2022-11-22T03:56:09.366Z,2.76
2022-11-22T03:58:47.716Z,2.78
2022-11-22T04:10:53.302Z,2.87
2022-11-22T04:21:42.692Z,2.92
2022-11-22T04:36:27.994Z,2.83
2022-11-22T04:39:06.769Z,2.85
2022-11-22T04:41:39.330Z,2.85
2022-11-22T04:45:02.425Z,2.85
2022-11-22T04:52:29.439Z,2.72
2022-11-22T04:55:08.862Z,2.68
2022-11-22T04:58:31.453Z,2.63
2022-11-22T05:01:22.789Z,2.58
2022-11-22T05:04:36.612Z,2.57
2022-11-22T05:07:09.431Z,2.57
2022-11-22T05:09:42.024Z,2.56
2022-11-22T05:12:14.385Z,2.54
2022-11-22T05:14:48.207Z,2.54
2022-11-22T05:18:24.707Z,2.53
2022-11-22T05:21:00.805Z,2.52
2022-11-22T05:23:57.208Z,2.50
2022-11-22T05:30:31.158Z,2.48
2022-11-22T05:33:03.572Z,2.48
2022-11-22T05:41:09.253Z,2.35
2022-11-22T05:43:42.392Z,2.32
2022-11-22T05:47:17.664Z,2.26
2022-11-22T05:54:31.235Z,2.09
2022-11-22T05:57:19.693Z,2.09
2022-11-22T06:05:44.023Z,2.01
2022-11-22T06:08:16.364Z,1.95
2022-11-22T06:11:42.624Z,1.92
2022-11-22T06:18:24.410Z,1.79
2022-11-22T06:25:12.788Z,1.77
2022-11-22T06:28:36.491Z,1.78
2022-11-22T06:31:15.337Z,1.78
2022-11-22T06:33:56.238Z,1.80
2022-11-22T06:42:08.621Z,1.85
2022-11-22T06:44:47.741Z,1.86
2022-11-22T06:47:20.261Z,1.86
2022-11-22T06:49:52.712Z,1.89
2022-11-22T06:56:46.585Z,1.90
2022-11-22T06:59:18.924Z,1.91
2022-11-22T07:06:22.807Z,1.85
2022-11-22T07:09:02.660Z,1.84
2022-11-22T07:11:36.471Z,1.83
2022-11-22T07:14:14.796Z,1.82
2022-11-22T07:16:47.105Z,1.84
2022-11-22T07:19:25.865Z,1.88
2022-11-22T07:21:59.080Z,1.92
2022-11-22T07:25:18.519Z,1.91
2022-11-22T07:27:52.868Z,1.90
2022-11-22T07:30:48.958Z,1.88
2022-11-22T07:38:15.069Z,1.89
2022-11-22T07:45:20.328Z,2.00
2022-11-22T07:47:52.846Z,2.06
2022-11-22T07:50:32.330Z,2.12
2022-11-22T07:53:04.716Z,2.20
2022-11-22T07:56:05.337Z,2.26
2022-11-22T08:06:53.958Z,2.64
2022-11-22T08:09:28.331Z,2.81
2022-11-22T08:12:59.801Z,3.24
2022-11-22T08:15:45.655Z,3.95
2022-11-22T08:18:18.717Z,4.31
2022-11-22T08:25:24.359Z,6.95
2022-11-22T08:27:57.610Z,9.23
2022-11-22T08:35:01.972Z,12.62
2022-11-22T08:37:36.261Z,14.98
2022-11-22T08:41:11.690Z,16.70
2022-11-22T08:43:55.183Z,18.99
2022-11-22T08:46:27.509Z,20.59
2022-11-22T08:49:32.375Z,21.79
2022-11-22T08:56:45.433Z,23.81
2022-11-22T09:00:33.210Z,24.06
2022-11-22T09:03:05.879Z,23.97
2022-11-22T09:09:43.543Z,23.03
2022-11-22T09:13:02.474Z,23.48
2022-11-22T09:15:35.528Z,23.66
2022-11-22T09:18:07.973Z,23.86
2022-11-22T09:20:40.614Z,23.98
2022-11-22T09:23:18.980Z,24.38
2022-11-22T09:26:57.092Z,24.37
2022-11-22T09:29:36.429Z,24.45
2022-11-22T09:36:34.468Z,26.01
2022-11-22T10:04:06.516Z,26.51
2022-11-22T10:19:35.042Z,24.98
2022-11-22T10:22:40.525Z,24.73
2022-11-22T10:34:38.135Z,21.52
2022-11-22T10:37:26.038Z,21.33
2022-11-22T10:44:36.286Z,19.74
2022-11-22T10:56:17.029Z,18.09
2022-11-22T11:09:36.381Z,19.13
2022-11-22T11:11:41.236Z,19.25
2022-11-22T11:16:01.608Z,18.50
2022-11-22T11:19:22.545Z,17.23
2022-11-22T11:35:43.945Z,15.18
2022-11-22T11:38:37.325Z,15.28
2022-11-22T11:41:25.327Z,15.15
2022-11-22T11:43:58.656Z,15.10
2022-11-22T11:46:44.992Z,14.90
2022-11-22T11:49:19.170Z,14.91
2022-11-22T11:51:55.424Z,14.64
2022-11-22T11:54:35.502Z,14.41
2022-11-22T11:57:12.100Z,14.56
2022-11-22T11:59:49.568Z,14.57
2022-11-22T12:02:24.474Z,14.51
2022-11-22T12:05:00.660Z,14.52
2022-11-22T12:07:43.822Z,14.76
2022-11-22T12:10:37.243Z,14.90
2022-11-22T12:13:16.782Z,14.96
2022-11-22T12:15:58.008Z,14.84
2022-11-22T12:18:42.831Z,14.49
2022-11-22T12:21:29.971Z,13.94
2022-11-22T12:27:01.642Z,15.20
2022-11-22T12:29:38.534Z,15.55
2022-11-22T12:32:18.277Z,15.90
2022-11-22T12:34:56.741Z,16.05
2022-11-22T12:37:35.642Z,16.19
2022-11-22T12:40:15.838Z,16.48
2022-11-22T12:42:52.497Z,16.40
2022-11-22T12:45:29.955Z,15.85
2022-11-22T12:48:06.712Z,15.25
2022-11-22T12:48:23.137Z,14.55
2022-11-22T12:50:43.045Z,14.47
2022-11-22T12:53:17.624Z,13.67
2022-11-22T12:55:59.054Z,13.05
2022-11-22T12:58:39.152Z,12.53
2022-11-22T13:01:15.262Z,12.12
2022-11-22T13:03:54.959Z,11.81
2022-11-22T13:06:31.237Z,11.60
2022-11-22T13:09:09.301Z,11.38
2022-11-22T13:11:46.562Z,11.14
2022-11-22T13:14:23.266Z,10.94
2022-11-22T13:16:57.367Z,10.72
2022-11-22T13:19:32.412Z,10.41
2022-11-22T13:22:16.648Z,10.13
2022-11-22T13:25:04.477Z,9.89
2022-11-22T13:27:42.102Z,9.66
2022-11-22T13:30:21.725Z,9.41
2022-11-22T13:32:55.979Z,9.26
2022-11-22T13:35:33.717Z,9.12
2022-11-22T13:38:13.697Z,8.93
2022-11-22T13:40:50.612Z,8.76
2022-11-22T13:43:53.425Z,8.68
2022-11-22T13:46:54.419Z,8.65
2022-11-22T13:49:38.929Z,8.61
2022-11-22T13:52:47.159Z,8.51
2022-11-22T13:55:42.437Z,8.44
2022-11-22T13:58:50.789Z,8.31
2022-11-22T14:02:19.578Z,8.15
2022-11-22T14:04:56.385Z,7.98
2022-11-22T14:07:43.580Z,7.85
2022-11-22T14:10:32.657Z,7.74
2022-11-22T14:13:32.811Z,7.62
2022-11-22T14:16:36.052Z,7.52
2022-11-22T14:19:21.544Z,7.41
2022-11-22T14:22:18.723Z,7.29
2022-11-22T14:25:04.632Z,7.18
2022-11-22T14:27:50.199Z,7.07
2022-11-22T14:30:23.420Z,6.95
2022-11-22T14:33:02.810Z,6.84
2022-11-22T14:35:39.258Z,6.70
2022-11-22T14:38:40.872Z,6.55
2022-11-22T14:41:44.031Z,6.36
2022-11-22T14:44:20.337Z,6.17
2022-11-22T14:46:57.522Z,5.96
2022-11-22T14:49:43.570Z,5.79
2022-11-22T14:52:23.488Z,5.67
2022-11-22T14:54:59.955Z,5.58
2022-11-22T14:57:35.564Z,5.49
2022-11-22T15:00:19.027Z,5.38
2022-11-22T15:03:23.827Z,5.23
2022-11-22T15:09:18.208Z,5.05
2022-11-22T15:09:46.860Z,4.91
2022-11-22T15:12:36.768Z,4.87
2022-11-22T15:57:36.763Z,4.37
2022-11-22T16:00:22.582Z,4.37
2022-11-22T16:03:01.634Z,4.41
2022-11-22T16:06:05.900Z,4.44
2022-11-22T16:08:32.590Z,4.45
2022-11-22T16:11:05.892Z,4.46
2022-11-22T16:13:40.048Z,4.50
2022-11-22T16:16:27.123Z,4.51
2022-11-22T16:19:23.788Z,4.52
2022-11-22T16:22:00.545Z,4.54
2022-11-22T16:24:33.429Z,4.56
2022-11-22T16:27:15.937Z,4.58
2022-11-22T16:29:54.764Z,4.59
2022-11-22T16:32:29.657Z,4.61
2022-11-22T16:35:27.495Z,4.61
2022-11-22T16:37:53.811Z,4.62
2022-11-22T16:40:26.072Z,4.64
2022-11-22T16:42:58.310Z,4.66
2022-11-22T16:45:31.455Z,4.68
2022-11-22T16:48:39.031Z,4.72
2022-11-22T16:55:31.475Z,4.82
2022-11-22T16:59:00.583Z,4.85
2022-11-22T17:14:33.564Z,4.97
2022-11-22T17:21:01.550Z,4.99
2022-11-22T17:23:36.684Z,4.98
2022-11-22T17:31:40.785Z,5.00
2022-11-22T17:34:13.094Z,5.01
2022-11-22T17:36:53.222Z,5.03
2022-11-22T17:39:25.443Z,5.03
2022-11-22T17:42:06.940Z,5.04
2022-11-22T17:44:39.672Z,5.04
2022-11-22T17:47:18.323Z,5.05
2022-11-22T17:49:50.597Z,5.05
2022-11-22T17:52:29.591Z,5.05
2022-11-22T17:55:06.217Z,5.04
2022-11-22T17:58:35.741Z,5.05
2022-11-22T18:01:10.265Z,5.05
2022-11-22T18:04:31.624Z,5.03
2022-11-22T18:07:04.546Z,5.03
2022-11-22T18:09:43.305Z,5.01
2022-11-22T18:17:07.394Z,4.97
2022-11-22T18:19:46.353Z,4.94
2022-11-22T18:22:20.178Z,4.93
2022-11-22T18:24:59.536Z,4.91
2022-11-22T18:27:31.719Z,4.87
2022-11-22T18:30:13.382Z,4.84
2022-11-22T18:51:23.701Z,4.61
2022-11-22T19:01:37.579Z,4.47
2022-11-22T19:04:10.832Z,4.44
2022-11-22T19:06:52.683Z,4.42
2022-11-22T19:09:29.026Z,4.41
2022-11-22T19:13:51.221Z,4.38
2022-11-22T19:21:38.220Z,4.30
2022-11-22T19:24:10.984Z,4.29
2022-11-22T19:26:49.414Z,4.30
2022-11-22T19:29:22.257Z,4.31
2022-11-22T19:32:01.666Z,4.30
2022-11-22T19:34:34.130Z,4.30
2022-11-22T19:37:12.914Z,4.30
2022-11-22T19:39:45.221Z,4.28
2022-11-22T19:46:11.605Z,4.21
2022-11-22T19:48:53.444Z,4.20
2022-11-22T19:52:15.533Z,4.16
2022-11-22T20:02:25.821Z,4.06
2022-11-22T20:04:58.628Z,4.01
2022-11-22T20:07:38.310Z,3.98
2022-11-22T20:10:11.509Z,3.95
2022-11-22T20:12:51.659Z,3.94
2022-11-22T20:20:16.015Z,3.82
2022-11-22T20:23:57.186Z,3.79
2022-11-22T20:26:36.267Z,3.78
2022-11-22T20:33:06.477Z,3.75
2022-11-22T20:35:39.811Z,3.73
2022-11-22T20:38:13.389Z,3.72
2022-11-22T20:45:08.693Z,3.65
2022-11-22T20:51:52.723Z,3.51
2022-11-22T20:54:24.984Z,3.50
2022-11-22T20:56:58.147Z,3.49
2022-11-22T20:59:30.420Z,3.46
2022-11-22T21:06:06.218Z,3.31
2022-11-22T21:08:38.438Z,3.19
2022-11-22T21:11:18.189Z,3.10
2022-11-22T21:13:51.263Z,2.99
2022-11-22T21:16:30.943Z,2.89
2022-11-22T21:19:05.214Z,2.82
2022-11-22T21:22:31.545Z,2.75
2022-11-22T21:25:53.442Z,2.68
2022-11-22T21:32:35.364Z,2.57
2022-11-22T21:39:37.221Z,2.43
2022-11-22T21:42:09.512Z,2.38
2022-11-22T21:44:48.081Z,2.39
2022-11-22T21:52:15.281Z,2.31
2022-11-22T21:54:47.692Z,2.30
2022-11-22T22:06:12.369Z,2.36
2022-11-22T22:09:43.977Z,2.36
2022-11-22T22:12:23.364Z,2.36
2022-11-22T22:15:12.400Z,2.38
2022-11-22T22:18:35.504Z,2.40
2022-11-22T22:21:58.502Z,2.40
2022-11-22T22:29:03.844Z,2.37
2022-11-22T22:36:26.898Z,2.37
2022-11-22T22:44:19.150Z,2.34
2022-11-22T22:47:00.677Z,2.32
2022-11-22T22:50:51.290Z,2.32
2022-11-22T22:53:31.124Z,2.34
2022-11-22T23:05:43.821Z,2.25
2022-11-22T23:08:22.865Z,2.22
2022-11-22T23:15:33.183Z,2.23
2022-11-22T23:22:28.087Z,2.19
2022-11-22T23:25:00.279Z,2.19
2022-11-22T23:31:42.059Z,2.14
2022-11-22T23:34:15.276Z,2.15
2022-11-22T23:36:54.064Z,2.15
2022-11-22T23:39:27.575Z,2.10
2022-11-22T23:42:00.317Z,2.07
2022-11-22T23:44:59.890Z,2.08
2022-11-22T23:52:38.436Z,2.05
2022-11-22T23:55:25.585Z,2.04
2022-11-22T23:57:59.539Z,2.03
